Aviation Digital Data Service (ADDS)

Output produced by METARs form (0155 UTC 16 July 2019)
found at http://www.aviationweather.gov/metar/data/
 
Forecast for: AMD
Text: TAF AMD NWWM 151917Z 1519/1618 20010KT 9999 SCT030 BKN045
Forecast period: 1900 UTC 15 July 2019 to 1000 UTC 16 July 2019
Forecast type: FROM: standard forecast or significant change
Winds: from the SSW (200 degrees) at 12 MPH (10 knots; 5.1 m/s)
Visibility: 6 or more miles 10+ km)
Ceiling: 4500 feet AGL
Clouds: scattered clouds at 3000 feet AGL
broken clouds at 4500 feet AGL
Weather: no significant weather forecast for this period
Text: TEMPO 1519/1521 3000 RA BKN007 BKN014
Forecast period: 1900 to 2100 UTC 15 July 2019
Forecast type: TEMPORARY: The following changes expected for less than half the time period
Visibility: 1.86 miles (2.99 km)
Ceiling: 700 feet AGL
Clouds: broken clouds at 700 feet AGL
broken clouds at 1400 feet AGL
Weather: RA  (moderate rain)
Text: BECMG 1610/1612 VRB02KT
Forecast period: 1000 to 1800 UTC 16 July 2019
Forecast type: BECOMING: Conditions expected to become as follows by 1200 UTC 16 July 2019
Winds: variable direction winds at 2 MPH (2 knots; 1.0 m/s)
Visibility: 6 or more miles 10+ km)
Ceiling: 4500 feet AGL
Clouds: scattered clouds at 3000 feet AGL
broken clouds at 4500 feet AGL
Weather: no significant weather forecast for this period